Time;durP1;ratioP1;P1;durP2;ratioP2;P2;SDS_P1;SDS_P2;PMS_P1;PMS_P2;Temp;Humidity;BMP_temperature;BMP_pressure;BME280_temperature;BME280_humidity;BME280_pressure;Samples;Min_cycle;Max_cycle;Signal;HPM_P1;HPM_P2
2022/08/27 00:00:13;;;;;;;45.63;31.40;;;25.60;99.90;;;;;;5057124;28;20013;-66
2022/08/27 00:02:43;;;;;;;49.65;34.28;;;25.80;99.90;;;;;;5046494;28;20043;-65
2022/08/27 00:05:12;;;;;;;44.88;32.63;;;25.80;99.90;;;;;;5056970;28;20025;-66
2022/08/27 00:07:38;;;;;;;44.30;32.30;;;25.80;99.90;;;;;;5056812;28;20083;-65
2022/08/27 00:10:07;;;;;;;44.78;30.92;;;25.70;99.90;;;;;;5056692;28;20398;-66
2022/08/27 00:12:35;;;;;;;45.22;32.72;;;25.60;99.90;;;;;;5056837;28;20036;-66
2022/08/27 00:15:04;;;;;;;48.28;33.63;;;25.60;99.90;;;;;;5056881;28;20528;-67
2022/08/27 00:17:31;;;;;;;40.13;31.08;;;25.60;99.90;;;;;;5056653;28;20033;-66
2022/08/27 00:19:57;;;;;;;40.50;29.60;;;25.60;99.90;;;;;;5056752;28;20021;-66
2022/08/27 00:22:24;;;;;;;46.75;32.05;;;25.70;99.90;;;;;;5056704;28;20059;-66
2022/08/27 00:24:50;;;;;;;42.22;31.25;;;25.80;99.90;;;;;;5056659;28;20456;-69
2022/08/27 00:27:17;;;;;;;50.97;31.58;;;25.70;99.90;;;;;;5052946;28;20028;-66
2022/08/27 00:29:44;;;;;;;37.33;29.73;;;25.80;99.90;;;;;;5047380;28;20516;-66
2022/08/27 00:32:11;;;;;;;41.65;31.05;;;25.80;99.90;;;;;;5045149;28;20429;-66
2022/08/27 00:34:37;;;;;;;38.53;29.63;;;25.90;99.90;;;;;;5056589;28;20027;-66
2022/08/27 00:37:05;;;;;;;42.83;28.92;;;25.80;99.90;;;;;;5050886;28;20112;-66
2022/08/27 00:39:33;;;;;;;41.25;28.38;;;25.80;99.90;;;;;;5036245;28;20097;-66
2022/08/27 00:41:59;;;;;;;42.45;28.77;;;25.80;99.90;;;;;;5036447;28;20025;-66
2022/08/27 00:44:27;;;;;;;39.80;30.33;;;25.80;99.90;;;;;;5036248;28;20033;-66
2022/08/27 00:47:00;;;;;;;39.50;31.27;;;25.90;99.90;;;;;;5036246;28;20402;-67
2022/08/27 00:49:30;;;;;;;59.40;37.42;;;25.90;99.90;;;;;;5039904;28;20033;-66
2022/08/27 00:52:05;;;;;;;54.28;41.80;;;26.00;99.90;;;;;;5044682;28;20416;-66
2022/08/27 00:54:32;;;;;;;51.60;38.15;;;26.00;99.90;;;;;;5045371;28;20017;-66
2022/08/27 00:57:00;;;;;;;44.72;36.17;;;26.10;99.90;;;;;;5046214;28;20429;-66
2022/08/27 00:59:29;;;;;;;53.60;38.03;;;26.10;99.90;;;;;;5046267;28;20512;-66
2022/08/27 01:04:47;;;;;;;46.13;34.28;;;26.10;99.90;;;;;;5046683;28;20026;-65
2022/08/27 01:07:14;;;;;;;45.72;35.72;;;26.10;99.90;;;;;;5044859;28;20040;-64
2022/08/27 01:09:42;;;;;;;57.35;38.53;;;26.20;99.90;;;;;;5045844;28;20498;-66
2022/08/27 01:12:10;;;;;;;47.45;37.30;;;26.20;99.90;;;;;;5044691;28;20044;-66
2022/08/27 01:14:38;;;;;;;50.92;36.47;;;26.20;99.90;;;;;;5044600;28;20410;-66
2022/08/27 01:17:08;;;;;;;51.25;36.10;;;26.20;99.90;;;;;;5046007;28;20092;-66
2022/08/27 01:19:51;;;;;;;48.00;36.42;;;26.30;99.90;;;;;;5045485;28;20024;-66
2022/08/27 01:22:46;;;;;;;52.97;38.55;;;26.30;99.90;;;;;;5046591;28;20025;-66
2022/08/27 01:25:15;;;;;;;60.58;42.83;;;26.30;99.90;;;;;;5044592;28;20501;-64
2022/08/27 01:27:44;;;;;;;52.53;41.60;;;26.30;99.90;;;;;;5054065;28;20025;-66
2022/08/27 01:30:15;;;;;;;55.83;40.53;;;26.30;99.90;;;;;;5048431;28;20112;-66
2022/08/27 01:32:43;;;;;;;49.58;36.22;;;26.30;99.90;;;;;;5045228;28;20083;-66
2022/08/27 01:35:11;;;;;;;49.80;33.85;;;26.40;99.90;;;;;;5042971;28;20013;-66
2022/08/27 01:37:40;;;;;;;44.33;32.42;;;26.40;99.90;;;;;;5043466;28;20021;-66
2022/08/27 01:40:07;;;;;;;46.00;32.13;;;26.50;99.90;;;;;;5045038;28;20359;-66
2022/08/27 01:42:40;;;;;;;49.20;31.52;;;26.50;99.90;;;;;;5044484;28;20026;-65
2022/08/27 01:45:23;;;;;;;49.78;31.45;;;26.50;99.90;;;;;;5045504;28;20021;-65
2022/08/27 01:47:50;;;;;;;35.15;27.38;;;26.50;99.90;;;;;;5045642;28;20025;-66
2022/08/27 01:50:22;;;;;;;36.90;25.80;;;26.50;99.90;;;;;;5044772;28;20033;-67
2022/08/27 01:52:49;;;;;;;;;;;26.50;99.90;;;;;;5045828;28;20024;-66
2022/08/27 01:55:20;;;;;;;39.88;26.98;;;26.60;99.90;;;;;;5044291;28;19916;-66
2022/08/27 01:57:47;;;;;;;41.95;26.90;;;26.60;99.90;;;;;;5052088;28;20100;-66
2022/08/27 02:00:20;;;;;;;36.90;25.27;;;26.60;99.90;;;;;;5048746;28;20096;-66
2022/08/27 02:02:50;;;;;;;35.83;24.10;;;26.60;99.90;;;;;;5045687;28;20509;-66
2022/08/27 02:05:17;;;;;;;37.35;25.65;;;26.60;99.90;;;;;;5051343;28;20444;-65
2022/08/27 02:07:45;;;;;;;40.00;26.23;;;26.60;99.90;;;;;;5046407;28;20060;-66
2022/08/27 02:10:16;;;;;;;36.42;26.67;;;26.60;99.90;;;;;;5043761;28;20104;-69
2022/08/27 02:12:42;;;;;;;30.98;24.95;;;26.60;99.90;;;;;;5045420;28;20021;-66
2022/08/27 02:15:10;;;;;;;40.53;26.88;;;26.70;99.90;;;;;;5044447;28;20022;-66
2022/08/27 02:17:37;;;;;;;38.50;28.23;;;26.70;99.90;;;;;;5043684;28;20025;-64
2022/08/27 02:20:08;;;;;;;36.03;25.20;;;26.60;99.90;;;;;;5045637;28;20010;-66
2022/08/27 02:22:35;;;;;;;38.55;28.10;;;26.60;99.90;;;;;;5044856;28;20029;-65
2022/08/27 02:25:02;;;;;;;35.28;25.70;;;26.70;99.90;;;;;;5043167;28;20021;-66
2022/08/27 02:27:28;;;;;;;34.13;26.30;;;26.70;99.90;;;;;;5044313;28;20478;-64
2022/08/27 02:29:55;;;;;;;39.88;25.75;;;26.70;99.90;;;;;;5044642;28;20017;-66
2022/08/27 02:32:21;;;;;;;35.45;26.67;;;26.70;99.90;;;;;;5043103;28;20044;-65
2022/08/27 02:34:48;;;;;;;37.45;27.75;;;26.80;99.90;;;;;;5044359;28;20013;-66
2022/08/27 02:37:17;;;;;;;42.00;28.33;;;26.80;99.90;;;;;;5044605;28;20067;-66
2022/08/27 02:39:43;;;;;;;43.97;29.23;;;26.80;99.90;;;;;;5044735;28;20464;-66
2022/08/27 02:42:10;;;;;;;41.38;27.88;;;26.80;99.90;;;;;;5044339;28;20418;-65
2022/08/27 02:44:39;;;;;;;36.28;28.05;;;26.80;99.90;;;;;;5042215;28;20026;-64
2022/08/27 02:47:06;;;;;;;44.95;29.60;;;26.90;99.90;;;;;;5051563;28;20029;-65
2022/08/27 02:49:33;;;;;;;41.05;29.20;;;26.90;99.90;;;;;;5053816;28;20112;-65
2022/08/27 02:51:59;;;;;;;43.55;30.27;;;26.90;99.90;;;;;;5053681;28;20057;-65
2022/08/27 02:54:26;;;;;;;41.83;29.35;;;26.90;99.90;;;;;;5053590;28;20397;-63
2022/08/27 02:56:54;;;;;;;42.35;31.33;;;26.90;99.90;;;;;;5053792;28;20104;-66
2022/08/27 02:59:21;;;;;;;40.38;29.70;;;26.90;99.90;;;;;;5052521;28;20470;-64
2022/08/27 03:01:48;;;;;;;33.38;25.73;;;26.90;99.90;;;;;;5045444;28;20074;-66
2022/08/27 03:04:17;;;;;;;34.33;26.63;;;27.00;99.90;;;;;;5045380;28;20143;-66
2022/08/27 03:06:46;;;;;;;39.80;26.35;;;27.00;99.90;;;;;;5044409;28;20417;-66
2022/08/27 03:09:13;;;;;;;36.15;25.80;;;27.00;99.90;;;;;;5043895;28;20026;-66
2022/08/27 03:11:40;;;;;;;34.50;26.33;;;27.00;99.90;;;;;;5042342;28;20025;-66
2022/08/27 03:14:07;;;;;;;30.02;24.90;;;27.00;99.90;;;;;;5049949;28;20052;-65
2022/08/27 03:16:36;;;;;;;35.70;26.02;;;27.00;99.90;;;;;;5048572;28;20059;-66
2022/08/27 03:19:05;;;;;;;30.30;24.30;;;27.00;99.90;;;;;;5048115;28;20092;-66
2022/08/27 03:21:33;;;;;;;37.72;26.50;;;27.00;99.90;;;;;;5053178;28;20371;-65
2022/08/27 03:24:00;;;;;;;43.55;28.77;;;27.00;99.90;;;;;;5053717;28;20029;-71
2022/08/27 03:26:29;;;;;;;36.63;27.40;;;27.00;99.90;;;;;;5053612;28;20422;-71
2022/08/27 03:28:55;;;;;;;40.65;28.15;;;27.00;99.90;;;;;;5053505;28;20482;-70
2022/08/27 03:31:25;;;;;;;44.75;29.25;;;27.00;99.90;;;;;;5053340;28;20037;-71
2022/08/27 03:34:01;;;;;;;33.38;26.13;;;27.00;99.90;;;;;;5051238;28;20140;-72
2022/08/27 03:36:29;;;;;;;31.95;24.27;;;27.00;99.90;;;;;;5051308;28;20029;-71
2022/08/27 03:38:57;;;;;;;36.80;27.13;;;27.00;99.90;;;;;;5051401;28;20013;-71
2022/08/27 03:41:24;;;;;;;35.42;24.55;;;27.00;99.90;;;;;;5051324;28;20462;-71
2022/08/27 03:43:52;;;;;;;39.22;25.50;;;27.00;99.90;;;;;;5051406;28;20032;-71
2022/08/27 03:46:21;;;;;;;32.97;23.20;;;27.00;99.90;;;;;;5051898;28;20051;-74
2022/08/27 03:48:48;;;;;;;30.73;23.10;;;27.00;99.90;;;;;;5052050;28;20036;-75
2022/08/27 03:51:15;;;;;;;31.67;25.60;;;27.00;99.90;;;;;;5053089;28;20040;-72
2022/08/27 03:53:45;;;;;;;34.42;26.48;;;27.10;99.90;;;;;;5053211;28;20103;-72
2022/08/27 03:56:13;;;;;;;35.20;26.00;;;27.10;99.90;;;;;;5047715;28;20025;-72
2022/08/27 03:58:40;;;;;;;36.78;24.98;;;27.00;99.90;;;;;;5043844;28;20028;-72
2022/08/27 04:01:09;;;;;;;32.08;22.17;;;27.00;99.90;;;;;;5046021;28;20032;-72
2022/08/27 04:03:36;;;;;;;28.88;22.92;;;27.00;99.90;;;;;;5052676;28;20036;-71
2022/08/27 04:06:03;;;;;;;33.03;23.33;;;27.00;99.90;;;;;;5053044;28;20037;-74
2022/08/27 04:08:29;;;;;;;31.23;22.95;;;27.10;99.90;;;;;;5044004;28;20079;-73
2022/08/27 04:10:56;;;;;;;32.88;24.42;;;27.10;99.90;;;;;;5042233;28;20025;-73
2022/08/27 04:13:23;;;;;;;39.83;24.50;;;27.20;99.90;;;;;;5043596;28;20028;-75
2022/08/27 04:15:52;;;;;;;29.40;22.98;;;27.20;99.90;;;;;;5041606;28;20017;-67
2022/08/27 04:18:18;;;;;;;36.42;24.58;;;27.20;99.90;;;;;;5033028;28;20022;-68
2022/08/27 04:20:46;;;;;;;30.60;23.42;;;27.20;99.90;;;;;;5038317;28;20021;-75
2022/08/27 04:23:14;;;;;;;31.75;20.77;;;27.10;99.90;;;;;;5042728;28;20017;-70
2022/08/27 04:25:42;;;;;;;26.55;21.40;;;27.10;99.90;;;;;;5041284;28;20032;-70
2022/08/27 04:28:10;;;;;;;24.17;19.77;;;27.10;99.90;;;;;;5042827;28;20096;-69
2022/08/27 04:30:40;;;;;;;29.35;21.95;;;27.10;99.90;;;;;;5042899;28;20072;-70
2022/08/27 04:33:07;;;;;;;28.33;21.63;;;27.10;99.90;;;;;;5043335;28;20734;-68
2022/08/27 04:35:37;;;;;;;29.95;21.88;;;27.10;99.90;;;;;;5046285;28;20465;-68
2022/08/27 04:38:06;;;;;;;39.22;28.42;;;27.20;99.90;;;;;;5045125;28;20028;-68
2022/08/27 04:43:21;;;;;;;35.42;26.45;;;27.20;99.90;;;;;;5049909;28;20033;-68
2022/08/27 04:45:49;;;;;;;52.55;33.72;;;27.30;99.90;;;;;;5046598;28;20465;-69
2022/08/27 04:48:18;;;;;;;63.05;36.38;;;27.30;99.90;;;;;;5046078;28;20029;-69
2022/08/27 04:50:46;;;;;;;68.53;39.45;;;27.30;99.90;;;;;;5044444;28;20044;-69
2022/08/27 04:53:15;;;;;;;68.88;36.60;;;27.30;99.90;;;;;;5045919;28;20084;-69
2022/08/27 04:55:45;;;;;;;68.72;35.25;;;27.30;99.90;;;;;;5043837;28;20457;-72
2022/08/27 04:58:12;;;;;;;55.13;28.27;;;27.30;99.90;;;;;;5046293;28;20025;-68
2022/08/27 05:00:47;;;;;;;52.45;26.42;;;27.30;99.90;;;;;;5043022;28;20029;-69
2022/08/27 05:03:15;;;;;;;54.05;27.38;;;27.20;99.90;;;;;;5047680;28;20025;-69
2022/08/27 05:05:43;;;;;;;47.53;27.73;;;27.20;99.90;;;;;;5071141;22;20029;-65
2022/08/27 05:08:11;;;;;;;60.05;32.40;;;27.20;99.90;;;;;;5059914;28;20075;-67
2022/08/27 05:10:48;;;;;;;93.32;45.75;;;27.30;99.90;;;;;;5064131;28;20110;-70
2022/08/27 05:13:18;;;;;;;108.65;49.67;;;27.30;99.90;;;;;;5060431;28;20085;-68
2022/08/27 05:15:45;;;;;;;90.78;47.33;;;27.30;99.90;;;;;;5062382;28;20058;-69
2022/08/27 05:18:12;;;;;;;57.83;32.45;;;27.30;99.90;;;;;;5063426;28;20261;-66
2022/08/27 05:20:49;;;;;;;47.40;26.42;;;27.30;99.90;;;;;;5060737;28;20381;-67
2022/08/27 05:23:17;;;;;;;28.35;19.42;;;27.40;99.90;;;;;;5055585;28;20474;-68
2022/08/27 05:25:47;;;;;;;29.50;19.67;;;27.40;99.90;;;;;;5055385;28;20024;-67
2022/08/27 05:28:15;;;;;;;30.55;20.67;;;27.40;99.90;;;;;;5055301;28;20021;-67
2022/08/27 05:30:45;;;;;;;24.58;17.90;;;27.50;99.90;;;;;;5055135;28;20031;-68
2022/08/27 05:33:16;;;;;;;29.13;20.25;;;27.60;99.90;;;;;;5055585;28;20420;-67
2022/08/27 05:35:48;;;;;;;21.57;15.53;;;27.60;99.90;;;;;;5055296;28;20036;-68
2022/08/27 05:38:17;;;;;;;20.42;15.43;;;27.70;99.90;;;;;;5055100;28;20250;-67
2022/08/27 05:40:46;;;;;;;17.95;13.32;;;27.70;99.90;;;;;;5055306;28;20033;-67
2022/08/27 05:43:15;;;;;;;18.67;12.60;;;27.80;99.90;;;;;;5061834;28;20417;-69
2022/08/27 05:45:45;;;;;;;19.65;13.07;;;27.90;99.90;;;;;;5064922;28;20043;-68
2022/08/27 05:48:15;;;;;;;20.27;12.57;;;27.90;99.90;;;;;;5063546;28;20021;-69
2022/08/27 05:50:43;;;;;;;19.25;12.23;;;27.90;99.90;;;;;;5063835;28;20024;-70
2022/08/27 05:53:12;;;;;;;21.00;9.45;;;27.90;99.90;;;;;;5065092;28;20285;-69
2022/08/27 05:55:41;;;;;;;16.60;9.38;;;27.90;99.90;;;;;;5066085;28;20111;-71
2022/08/27 06:01:03;;;;;;;13.65;8.70;;;27.90;99.90;;;;;;5063758;28;20079;-71
2022/08/27 06:01:03;;;;;;;15.60;8.80;;;27.90;99.90;;;;;;5063906;28;20174;-71
2022/08/27 06:03:32;;;;;;;13.55;9.15;;;28.00;99.90;;;;;;5062615;28;20028;-72
2022/08/27 06:06:06;;;;;;;17.17;9.90;;;28.00;99.90;;;;;;5060158;28;20397;-71
2022/08/27 06:08:33;;;;;;;15.48;10.10;;;28.00;99.90;;;;;;5054642;28;20025;-71
2022/08/27 06:11:00;;;;;;;19.00;11.57;;;28.00;99.90;;;;;;5054438;28;20032;-71
2022/08/27 06:13:28;;;;;;;18.95;13.18;;;28.00;99.90;;;;;;5054746;28;20025;-70
2022/08/27 06:16:08;;;;;;;18.42;13.88;;;28.10;99.90;;;;;;5054632;28;20048;-70
2022/08/27 06:18:37;;;;;;;15.70;11.85;;;28.00;99.90;;;;;;5054460;28;20025;-69
2022/08/27 06:21:06;;;;;;;14.38;11.43;;;28.00;99.90;;;;;;5052696;28;20107;-70
2022/08/27 06:23:34;;;;;;;17.63;10.60;;;28.10;99.90;;;;;;5052287;28;20355;-69
2022/08/27 06:26:04;;;;;;;15.30;9.82;;;28.10;99.90;;;;;;5052785;28;20527;-71
2022/08/27 06:28:31;;;;;;;180.80;132.38;;;28.10;99.90;;;;;;5055426;28;20428;-71
2022/08/27 06:31:10;;;;;;;98.45;73.55;;;28.10;99.90;;;;;;5059400;28;20028;-70
2022/08/27 06:33:38;;;;;;;72.55;49.63;;;28.10;99.90;;;;;;5061087;28;20068;-70
2022/08/27 06:36:10;;;;;;;25.25;18.80;;;28.10;99.90;;;;;;5062735;28;20055;-66
2022/08/27 06:38:37;;;;;;;23.17;14.98;;;28.10;99.90;;;;;;5064453;28;20036;-66
2022/08/27 06:41:07;;;;;;;15.02;9.98;;;28.20;99.90;;;;;;5062520;28;20024;-66
2022/08/27 06:43:37;;;;;;;19.95;9.25;;;28.10;99.90;;;;;;5062301;28;20020;-65
2022/08/27 06:46:07;;;;;;;12.45;8.48;;;28.20;99.90;;;;;;5060149;28;20021;-70
2022/08/27 06:48:34;;;;;;;18.48;11.00;;;28.20;99.90;;;;;;5062385;28;20021;-66
2022/08/27 06:51:11;;;;;;;29.55;18.33;;;28.20;99.90;;;;;;5059250;28;20322;-65
2022/08/27 06:53:38;;;;;;;33.17;18.55;;;28.20;99.90;;;;;;5061813;28;20088;-65
2022/08/27 06:56:05;;;;;;;29.52;18.48;;;28.30;99.90;;;;;;5062886;28;20029;-66
2022/08/27 06:58:33;;;;;;;30.73;17.88;;;28.30;99.90;;;;;;5063417;28;20013;-70
2022/08/27 07:01:00;;;;;;;23.33;15.63;;;28.40;99.90;;;;;;5061894;28;20017;-64
2022/08/27 07:03:26;;;;;;;24.00;11.85;;;28.40;99.90;;;;;;5062926;28;20023;-66
2022/08/27 07:05:53;;;;;;;17.15;10.55;;;28.40;99.90;;;;;;5063349;28;20527;-65
2022/08/27 07:08:19;;;;;;;15.27;10.75;;;28.40;99.90;;;;;;5061733;28;20025;-66
2022/08/27 07:10:46;;;;;;;15.50;10.30;;;28.40;99.90;;;;;;5062925;28;20024;-69
2022/08/27 07:13:12;;;;;;;14.65;10.65;;;28.40;99.90;;;;;;5061676;28;20021;-69
2022/08/27 07:15:41;;;;;;;21.02;13.80;;;28.40;99.90;;;;;;5056472;28;20036;-71
2022/08/27 07:18:08;;;;;;;26.67;15.30;;;28.50;99.90;;;;;;5063711;28;20517;-67
2022/08/27 07:20:35;;;;;;;22.05;12.57;;;28.50;99.90;;;;;;5063211;28;20089;-66
2022/08/27 07:23:01;;;;;;;16.83;11.20;;;28.50;99.90;;;;;;5061758;28;20024;-66
2022/08/27 07:25:30;;;;;;;17.88;10.85;;;28.50;99.90;;;;;;5062099;28;20048;-66
2022/08/27 07:27:58;;;;;;;16.60;11.32;;;28.50;99.90;;;;;;5062594;28;20095;-67
2022/08/27 07:30:26;;;;;;;20.05;12.32;;;28.50;99.90;;;;;;5063418;28;20044;-68
2022/08/27 07:32:53;;;;;;;18.67;10.98;;;28.50;99.90;;;;;;5057340;28;20055;-67
2022/08/27 07:35:20;;;;;;;16.80;10.50;;;28.40;99.90;;;;;;5054959;28;20044;-66
2022/08/27 07:37:46;;;;;;;13.10;9.90;;;28.40;99.90;;;;;;5057583;28;20509;-67
2022/08/27 07:40:15;;;;;;;14.13;9.27;;;28.50;99.90;;;;;;5057737;28;20029;-68
2022/08/27 07:45:19;;;;;;;11.93;8.20;;;28.50;99.90;;;;;;5055415;28;20024;-65
2022/08/27 07:47:46;;;;;;;13.52;7.80;;;28.40;99.90;;;;;;5052015;28;20029;-65
2022/08/27 07:50:14;;;;;;;13.93;10.07;;;28.30;99.90;;;;;;5053252;28;20025;-64
2022/08/27 07:52:42;;;;;;;46.58;33.53;;;28.30;99.90;;;;;;5052990;28;20087;-66
2022/08/27 07:55:11;;;;;;;19.52;13.38;;;28.20;99.90;;;;;;5052826;28;20025;-64
2022/08/27 07:57:37;;;;;;;23.92;11.23;;;28.20;99.90;;;;;;5057603;28;20347;-65
2022/08/27 08:00:09;;;;;;;13.65;8.95;;;28.20;99.90;;;;;;5053940;28;20028;-64
2022/08/27 08:02:36;;;;;;;15.70;10.43;;;28.20;99.90;;;;;;5059017;28;20033;-71
2022/08/27 08:05:05;;;;;;;16.88;9.65;;;28.20;99.90;;;;;;5062980;28;20020;-67
2022/08/27 08:07:32;;;;;;;13.77;8.55;;;28.30;99.90;;;;;;5062016;28;20044;-66
2022/08/27 08:09:59;;;;;;;9.75;7.68;;;28.30;99.90;;;;;;5064810;28;20039;-66
2022/08/27 08:12:26;;;;;;;60.83;45.60;;;28.30;99.90;;;;;;5066742;28;20104;-65
2022/08/27 08:14:56;;;;;;;28.15;21.83;;;28.30;99.90;;;;;;5066138;28;20017;-68
2022/08/27 08:17:24;;;;;;;30.48;24.67;;;28.30;99.90;;;;;;5064831;28;20025;-68
2022/08/27 08:19:52;;;;;;;12.73;9.10;;;28.40;99.90;;;;;;5065784;28;20457;-69
2022/08/27 08:22:19;;;;;;;57.22;32.67;;;28.40;99.90;;;;;;5069069;28;20040;-67
2022/08/27 08:24:46;;;;;;;68.20;30.40;;;28.40;99.90;;;;;;5069736;28;20021;-64
2022/08/27 08:27:12;;;;;;;39.97;18.80;;;28.50;99.90;;;;;;5060033;28;20048;-63
2022/08/27 08:29:39;;;;;;;15.88;10.25;;;28.50;99.90;;;;;;5057413;28;20025;-65
2022/08/27 08:32:06;;;;;;;19.50;11.32;;;28.50;99.90;;;;;;5048168;28;20053;-63
2022/08/27 08:34:34;;;;;;;20.40;14.02;;;28.50;99.90;;;;;;5046729;28;20025;-65
2022/08/27 08:37:02;;;;;;;15.07;11.63;;;28.50;99.90;;;;;;5045346;28;20092;-64
2022/08/27 08:39:29;;;;;;;18.45;11.85;;;28.40;99.90;;;;;;5045650;28;20013;-64
2022/08/27 08:41:58;;;;;;;16.15;10.15;;;28.50;99.90;;;;;;5046948;28;20472;-65
2022/08/27 08:44:33;;;;;;;15.60;10.10;;;28.50;99.90;;;;;;5046017;28;20029;-64
2022/08/27 08:47:02;;;;;;;27.45;12.88;;;28.60;99.90;;;;;;5047692;28;20033;-62
2022/08/27 08:49:34;;;;;;;55.13;44.65;;;28.60;99.90;;;;;;5057673;28;20028;-63
2022/08/27 08:52:17;;;;;;;43.13;38.85;;;28.60;99.90;;;;;;5047105;28;20021;-65
2022/08/27 08:54:44;;;;;;;39.55;31.33;;;28.60;99.90;;;;;;5047230;28;20386;-63
2022/08/27 08:57:28;;;;;;;51.92;40.05;;;28.60;99.90;;;;;;5047457;28;20021;-65
2022/08/27 09:00:06;;;;;;;43.13;32.72;;;28.60;99.90;;;;;;5047774;28;20025;-65
2022/08/27 09:02:32;;;;;;;32.90;23.98;;;28.60;99.90;;;;;;5044655;28;20049;-68
2022/08/27 09:05:04;;;;;;;44.10;33.25;;;28.50;99.90;;;;;;5045966;28;20025;-66
2022/08/27 09:07:37;;;;;;;14.33;9.83;;;28.50;99.90;;;;;;5055864;28;20051;-65
2022/08/27 09:10:18;;;;;;;10.77;8.30;;;28.40;99.90;;;;;;5065932;28;20655;-66
2022/08/27 09:12:44;;;;;;;14.50;10.07;;;28.40;99.90;;;;;;5066075;28;20094;-66
2022/08/27 09:15:16;;;;;;;11.57;9.57;;;28.40;99.90;;;;;;5064824;28;20032;-65
2022/08/27 09:17:44;;;;;;;13.65;10.20;;;28.50;99.90;;;;;;5059327;28;20486;-66
2022/08/27 09:20:12;;;;;;;14.45;9.32;;;28.50;99.90;;;;;;5065288;28;20033;-65
2022/08/27 09:23:03;;;;;;;26.20;16.67;;;28.50;99.90;;;;;;5063293;28;20479;-65
2022/08/27 09:25:32;;;;;;;19.02;13.23;;;28.50;99.90;;;;;;5056093;28;20029;-65
2022/08/27 09:28:03;;;;;;;21.08;13.10;;;28.40;99.90;;;;;;5055471;28;20483;-65
2022/08/27 09:30:40;;;;;;;118.80;92.15;;;28.40;99.90;;;;;;5057403;28;20039;-66
2022/08/27 09:33:07;;;;;;;53.55;41.13;;;28.40;99.90;;;;;;5068440;28;20381;-65
2022/08/27 09:35:41;;;;;;;37.17;27.00;;;28.40;99.90;;;;;;5066031;28;20043;-66
2022/08/27 09:38:08;;;;;;;50.75;33.47;;;28.30;99.90;;;;;;5045490;28;20075;-67
2022/08/27 09:40:43;;;;;;;48.03;29.63;;;28.40;99.90;;;;;;5056413;28;20029;-66
2022/08/27 09:43:23;;;;;;;33.70;21.92;;;28.30;99.90;;;;;;5058888;28;20048;-65
2022/08/27 09:46:00;;;;;;;40.47;27.20;;;28.30;99.90;;;;;;5061870;28;20129;-69
2022/08/27 09:48:32;;;;;;;58.03;36.15;;;28.30;99.90;;;;;;5061146;28;20009;-65
2022/08/27 09:51:08;;;;;;;64.70;37.38;;;28.30;99.90;;;;;;5054238;28;20232;-65
2022/08/27 09:53:43;;;;;;;61.90;37.95;;;28.30;99.90;;;;;;5065820;28;20444;-65
2022/08/27 09:56:24;;;;;;;49.63;35.45;;;28.30;99.90;;;;;;5075153;28;20021;-66
2022/08/27 09:59:14;;;;;;;33.85;25.42;;;28.30;99.90;;;;;;5075033;28;20029;-66
2022/08/27 10:01:52;;;;;;;38.08;26.23;;;28.30;99.90;;;;;;5025974;28;20135;-66
2022/08/27 10:04:41;;;;;;;33.03;23.98;;;28.30;99.90;;;;;;5017145;28;20494;-66
2022/08/27 10:07:23;;;;;;;30.58;25.45;;;28.20;99.90;;;;;;4971280;28;20121;-67
2022/08/27 10:09:59;;;;;;;58.95;41.75;;;28.20;99.90;;;;;;4971310;28;20073;-66
2022/08/27 10:12:35;;;;;;;42.80;32.22;;;28.20;99.90;;;;;;4971524;28;20047;-65
2022/08/27 10:15:04;;;;;;;37.28;27.42;;;28.20;99.90;;;;;;4971530;28;20034;-67
2022/08/27 10:17:57;;;;;;;37.92;24.98;;;28.20;99.90;;;;;;4973029;28;20093;-65
2022/08/27 10:20:44;;;;;;;42.08;22.38;;;28.30;99.90;;;;;;4973480;28;20062;-66
2022/08/27 10:23:20;;;;;;;55.78;28.05;;;28.30;99.90;;;;;;4973375;28;20033;-64
2022/08/27 10:26:07;;;;;;;53.60;29.92;;;28.30;99.90;;;;;;4962083;28;20043;-64
2022/08/27 10:28:59;;;;;;;42.63;24.63;;;28.20;99.90;;;;;;4923607;29;20048;-66
2022/08/27 10:31:55;;;;;;;46.47;25.35;;;28.20;99.90;;;;;;4918757;29;20466;-68
2022/08/27 10:34:22;;;;;;;49.53;24.67;;;28.30;99.90;;;;;;4922571;29;20344;-67
2022/08/27 10:36:50;;;;;;;58.63;33.80;;;28.20;99.90;;;;;;4922344;29;20095;-68
2022/08/27 10:39:43;;;;;;;76.50;43.63;;;28.20;99.90;;;;;;4924051;29;20177;-67
2022/08/27 10:42:23;;;;;;;79.82;50.38;;;28.20;99.90;;;;;;4924931;29;20042;-66
2022/08/27 10:45:10;;;;;;;151.32;79.97;;;28.20;99.90;;;;;;4983248;28;20145;-67
2022/08/27 10:47:50;;;;;;;93.38;47.90;;;28.20;99.90;;;;;;4973006;28;20041;-66
2022/08/27 10:50:31;;;;;;;1422.30;549.38;;;28.20;99.90;;;;;;4973462;28;20038;-67
2022/08/27 10:53:05;;;;;;;507.33;209.68;;;28.30;99.90;;;;;;4973482;28;20042;-66
2022/08/27 10:55:37;;;;;;;109.63;50.03;;;28.20;99.90;;;;;;4967712;28;20023;-66
2022/08/27 10:58:14;;;;;;;67.95;32.38;;;28.20;99.90;;;;;;4943658;29;20370;-66
2022/08/27 11:00:50;;;;;;;51.47;24.80;;;28.20;99.90;;;;;;4937270;29;20382;-65
2022/08/27 11:03:45;;;;;;;289.85;124.93;;;28.20;99.90;;;;;;4945200;29;20031;-65
2022/08/27 11:06:37;;;;;;;110.28;57.63;;;28.20;99.90;;;;;;4982087;28;20034;-63
2022/08/27 11:09:32;;;;;;;78.68;46.95;;;28.30;99.90;;;;;;4992874;28;20022;-64
2022/08/27 11:12:03;;;;;;;60.30;38.65;;;28.10;99.90;;;;;;4992739;28;20183;-64
2022/08/27 11:15:03;;;;;;;70.45;41.35;;;28.10;99.90;;;;;;4992485;28;20151;-63
2022/08/27 11:17:51;;;;;;;407.33;208.95;;;28.10;99.90;;;;;;4992213;28;20038;-64
2022/08/27 11:20:22;;;;;;;275.90;130.75;;;28.10;99.90;;;;;;4973023;28;20027;-66
2022/08/27 11:22:54;;;;;;;207.20;95.50;;;28.00;99.90;;;;;;4972674;28;20140;-66
2022/08/27 11:25:21;;;;;;;83.10;45.88;;;28.00;99.90;;;;;;4955928;28;20043;-65
2022/08/27 11:27:53;;;;;;;50.67;32.60;;;28.00;99.90;;;;;;4943371;29;20027;-70
2022/08/27 11:30:21;;;;;;;184.15;91.25;;;28.00;99.90;;;;;;4934353;29;20119;-69
2022/08/27 11:32:48;;;;;;;117.22;66.03;;;28.10;99.90;;;;;;4940112;28;20039;-71
2022/08/27 11:35:28;;;;;;;93.63;53.67;;;28.10;99.90;;;;;;4953098;29;20027;-71
2022/08/27 11:38:14;;;;;;;68.38;43.63;;;28.10;99.90;;;;;;4953916;29;20027;-68
2022/08/27 11:40:55;;;;;;;64.30;44.30;;;28.00;99.90;;;;;;4954743;28;20476;-69
2022/08/27 11:43:25;;;;;;;76.28;49.28;;;27.80;99.90;;;;;;4954788;29;20074;-70
2022/08/27 11:45:54;;;;;;;415.08;170.85;;;27.90;99.90;;;;;;4954226;29;20401;-70
2022/08/27 11:48:23;;;;;;;162.27;83.97;;;28.00;99.90;;;;;;4953408;29;20370;-69
2022/08/27 11:51:03;;;;;;;136.30;83.18;;;28.00;99.90;;;;;;4952845;29;20424;-69
2022/08/27 11:53:33;;;;;;;151.20;93.80;;;28.00;99.90;;;;;;4955435;28;20032;-65
2022/08/27 11:56:35;;;;;;;143.43;89.97;;;28.00;99.90;;;;;;4991334;28;20053;-65
2022/08/27 11:59:28;;;;;;;130.35;74.05;;;28.00;99.90;;;;;;4991523;28;20027;-64
2022/08/27 12:01:58;;;;;;;92.50;51.10;;;28.10;99.90;;;;;;4987948;28;20121;-64
2022/08/27 12:04:27;;;;;;;74.30;48.17;;;28.10;99.90;;;;;;4980297;28;20090;-66
2022/08/27 12:07:23;;;;;;;82.10;50.92;;;28.10;99.90;;;;;;4972555;28;20058;-66
2022/08/27 12:09:52;;;;;;;65.30;43.17;;;28.10;99.90;;;;;;4972722;28;20440;-66
2022/08/27 12:12:41;;;;;;;67.80;41.40;;;28.00;99.90;;;;;;5053940;22;20049;-65
2022/08/27 12:15:21;;;;;;;66.82;40.83;;;28.00;99.90;;;;;;5053116;28;20048;-64
2022/08/27 12:18:21;;;;;;;60.63;39.42;;;28.00;99.90;;;;;;5052993;28;20014;-65
2022/08/27 12:21:02;;;;;;;58.33;36.03;;;28.00;99.90;;;;;;5031032;28;20038;-65
2022/08/27 12:23:41;;;;;;;71.97;43.80;;;28.00;99.90;;;;;;5030625;28;20065;-64
2022/08/27 12:26:31;;;;;;;79.72;49.03;;;27.90;99.90;;;;;;5031610;28;20084;-66
2022/08/27 12:29:37;;;;;;;68.10;43.88;;;27.90;99.90;;;;;;5030989;28;20095;-65
2022/08/27 12:32:23;;;;;;;71.07;46.97;;;27.80;99.90;;;;;;5031488;28;20243;-65
2022/08/27 12:35:16;;;;;;;84.82;54.00;;;27.70;99.90;;;;;;5024740;28;20433;-65
2022/08/27 12:37:46;;;;;;;83.80;55.60;;;27.80;99.90;;;;;;5022680;28;20034;-66
2022/08/27 12:40:41;;;;;;;88.95;56.83;;;27.80;99.90;;;;;;5031624;28;20060;-64
2022/08/27 12:43:27;;;;;;;95.75;60.35;;;27.80;99.90;;;;;;4960482;28;20093;-65
2022/08/27 12:45:57;;;;;;;106.13;64.95;;;27.80;99.90;;;;;;4963183;28;20105;-67
2022/08/27 12:48:29;;;;;;;103.70;58.05;;;27.80;99.90;;;;;;4963258;28;20102;-65
2022/08/27 12:51:01;;;;;;;92.78;52.05;;;27.80;99.90;;;;;;4964483;28;20113;-65
2022/08/27 12:53:36;;;;;;;79.55;47.67;;;27.70;99.90;;;;;;4981017;28;20185;-66
2022/08/27 12:56:31;;;;;;;83.90;45.88;;;27.70;99.90;;;;;;4981684;28;20022;-66
2022/08/27 12:59:08;;;;;;;83.60;45.95;;;27.60;99.90;;;;;;4981463;28;20567;-66